sensor_id;sensor_type;location;lat;lon;timestamp;temperature;humidity
13796;SHT30;40911;51.552;9.874;2023-05-10T00:05:07;14.41;64.59
13796;SHT30;40911;51.552;9.874;2023-05-10T00:07:28;14.50;63.85
13796;SHT30;40911;51.552;9.874;2023-05-10T00:09:50;14.74;63.36
13796;SHT30;40911;51.552;9.874;2023-05-10T00:12:11;14.61;63.45
13796;SHT30;40911;51.552;9.874;2023-05-10T00:14:33;14.59;64.15
13796;SHT30;40911;51.552;9.874;2023-05-10T00:16:55;14.49;64.06
13796;SHT30;40911;51.552;9.874;2023-05-10T00:19:16;14.41;64.49
13796;SHT30;40911;51.552;9.874;2023-05-10T00:21:39;14.41;63.60
13796;SHT30;40911;51.552;9.874;2023-05-10T00:24:01;14.44;63.75
13796;SHT30;40911;51.552;9.874;2023-05-10T00:26:23;14.44;64.02
13796;SHT30;40911;51.552;9.874;2023-05-10T00:28:45;14.40;63.94
13796;SHT30;40911;51.552;9.874;2023-05-10T00:31:06;14.33;64.21
13796;SHT30;40911;51.552;9.874;2023-05-10T00:33:28;14.34;64.22
13796;SHT30;40911;51.552;9.874;2023-05-10T00:35:49;14.36;63.94
13796;SHT30;40911;51.552;9.874;2023-05-10T00:38:12;14.59;64.19
13796;SHT30;40911;51.552;9.874;2023-05-10T00:40:35;14.44;64.28
13796;SHT30;40911;51.552;9.874;2023-05-10T00:42:57;14.37;64.91
13796;SHT30;40911;51.552;9.874;2023-05-10T00:45:19;14.50;64.81
13796;SHT30;40911;51.552;9.874;2023-05-10T00:47:41;14.59;64.83
13796;SHT30;40911;51.552;9.874;2023-05-10T00:50:04;14.37;65.44
13796;SHT30;40911;51.552;9.874;2023-05-10T00:52:26;14.44;65.53
13796;SHT30;40911;51.552;9.874;2023-05-10T00:54:49;14.63;65.06
13796;SHT30;40911;51.552;9.874;2023-05-10T00:57:11;14.39;65.34
13796;SHT30;40911;51.552;9.874;2023-05-10T00:59:32;14.32;65.08
13796;SHT30;40911;51.552;9.874;2023-05-10T01:01:54;14.33;65.17
13796;SHT30;40911;51.552;9.874;2023-05-10T01:04:15;14.32;65.37
13796;SHT30;40911;51.552;9.874;2023-05-10T01:06:37;14.43;65.09
13796;SHT30;40911;51.552;9.874;2023-05-10T01:08:58;14.39;65.34
13796;SHT30;40911;51.552;9.874;2023-05-10T01:11:21;14.33;66.08
13796;SHT30;40911;51.552;9.874;2023-05-10T01:13:47;14.43;65.94
13796;SHT30;40911;51.552;9.874;2023-05-10T01:16:12;14.59;65.98
13796;SHT30;40911;51.552;9.874;2023-05-10T01:18:36;14.54;66.33
13796;SHT30;40911;51.552;9.874;2023-05-10T01:21:06;14.33;66.13
13796;SHT30;40911;51.552;9.874;2023-05-10T01:23:35;14.29;66.47
13796;SHT30;40911;51.552;9.874;2023-05-10T01:26:38;14.26;66.00
13796;SHT30;40911;51.552;9.874;2023-05-10T01:29:32;14.26;66.25
13796;SHT30;40911;51.552;9.874;2023-05-10T01:32:21;14.16;66.61
13796;SHT30;40911;51.552;9.874;2023-05-10T01:34:54;14.22;66.70
13796;SHT30;40911;51.552;9.874;2023-05-10T01:37:20;14.16;66.88
13796;SHT30;40911;51.552;9.874;2023-05-10T01:39:45;14.36;66.46
13796;SHT30;40911;51.552;9.874;2023-05-10T01:42:11;14.25;67.13
13796;SHT30;40911;51.552;9.874;2023-05-10T01:44:39;14.32;66.87
13796;SHT30;40911;51.552;9.874;2023-05-10T01:47:06;14.37;66.34
13796;SHT30;40911;51.552;9.874;2023-05-10T01:49:34;14.26;66.61
13796;SHT30;40911;51.552;9.874;2023-05-10T01:52:00;14.33;66.86
13796;SHT30;40911;51.552;9.874;2023-05-10T01:54:25;14.57;67.03
13796;SHT30;40911;51.552;9.874;2023-05-10T01:56:55;14.39;67.42
13796;SHT30;40911;51.552;9.874;2023-05-10T01:59:19;14.40;67.02
13796;SHT30;40911;51.552;9.874;2023-05-10T02:01:41;14.06;67.81
13796;SHT30;40911;51.552;9.874;2023-05-10T02:04:05;14.15;68.15
13796;SHT30;40911;51.552;9.874;2023-05-10T02:06:30;14.18;67.80
13796;SHT30;40911;51.552;9.874;2023-05-10T02:08:53;14.46;68.32
13796;SHT30;40911;51.552;9.874;2023-05-10T02:11:17;14.15;68.01
13796;SHT30;40911;51.552;9.874;2023-05-10T02:13:42;13.98;68.78
13796;SHT30;40911;51.552;9.874;2023-05-10T02:16:06;14.05;68.38
13796;SHT30;40911;51.552;9.874;2023-05-10T02:18:29;14.06;68.54
13796;SHT30;40911;51.552;9.874;2023-05-10T02:20:52;13.92;69.40
13796;SHT30;40911;51.552;9.874;2023-05-10T02:23:17;14.25;68.78
13796;SHT30;40911;51.552;9.874;2023-05-10T02:25:39;14.44;68.57
13796;SHT30;40911;51.552;9.874;2023-05-10T02:28:03;14.34;68.99
13796;SHT30;40911;51.552;9.874;2023-05-10T02:30:26;14.33;69.59
13796;SHT30;40911;51.552;9.874;2023-05-10T02:32:49;14.34;70.41
13796;SHT30;40911;51.552;9.874;2023-05-10T02:35:11;14.02;69.83
13796;SHT30;40911;51.552;9.874;2023-05-10T02:37:34;14.18;69.96
13796;SHT30;40911;51.552;9.874;2023-05-10T02:39:59;13.98;70.59
13796;SHT30;40911;51.552;9.874;2023-05-10T02:42:26;13.97;70.55
13796;SHT30;40911;51.552;9.874;2023-05-10T02:44:48;13.88;71.90
13796;SHT30;40911;51.552;9.874;2023-05-10T02:47:11;13.84;72.52
13796;SHT30;40911;51.552;9.874;2023-05-10T02:49:33;13.84;72.81
13796;SHT30;40911;51.552;9.874;2023-05-10T02:51:56;13.74;74.26
13796;SHT30;40911;51.552;9.874;2023-05-10T02:54:24;13.62;73.82
13796;SHT30;40911;51.552;9.874;2023-05-10T02:56:54;13.88;74.71
13796;SHT30;40911;51.552;9.874;2023-05-10T02:59:17;13.88;75.13
13796;SHT30;40911;51.552;9.874;2023-05-10T03:01:39;13.98;75.61
13796;SHT30;40911;51.552;9.874;2023-05-10T03:04:00;13.73;76.28
13796;SHT30;40911;51.552;9.874;2023-05-10T03:06:22;13.57;77.46
13796;SHT30;40911;51.552;9.874;2023-05-10T03:08:43;13.51;76.40
13796;SHT30;40911;51.552;9.874;2023-05-10T03:11:21;13.37;78.18
13796;SHT30;40911;51.552;9.874;2023-05-10T03:13:56;13.34;78.82
13796;SHT30;40911;51.552;9.874;2023-05-10T03:16:27;13.30;79.32
13796;SHT30;40911;51.552;9.874;2023-05-10T03:18:54;13.18;80.19
13796;SHT30;40911;51.552;9.874;2023-05-10T03:21:18;13.27;80.20
13796;SHT30;40911;51.552;9.874;2023-05-10T03:23:44;13.01;81.95
13796;SHT30;40911;51.552;9.874;2023-05-10T03:26:07;13.03;81.34
13796;SHT30;40911;51.552;9.874;2023-05-10T03:28:29;12.86;81.91
13796;SHT30;40911;51.552;9.874;2023-05-10T03:30:54;12.89;83.22
13796;SHT30;40911;51.552;9.874;2023-05-10T03:33:16;13.27;82.38
13796;SHT30;40911;51.552;9.874;2023-05-10T03:35:38;13.05;83.90
13796;SHT30;40911;51.552;9.874;2023-05-10T03:38:00;12.61;85.71
13796;SHT30;40911;51.552;9.874;2023-05-10T03:40:21;12.89;85.95
13796;SHT30;40911;51.552;9.874;2023-05-10T03:42:43;12.68;87.31
13796;SHT30;40911;51.552;9.874;2023-05-10T03:45:06;12.93;86.65
13796;SHT30;40911;51.552;9.874;2023-05-10T03:47:29;12.71;88.65
13796;SHT30;40911;51.552;9.874;2023-05-10T03:49:50;12.57;89.35
13796;SHT30;40911;51.552;9.874;2023-05-10T03:52:12;13.24;86.19
13796;SHT30;40911;51.552;9.874;2023-05-10T03:54:34;13.47;86.22
13796;SHT30;40911;51.552;9.874;2023-05-10T03:56:55;13.54;86.18
13796;SHT30;40911;51.552;9.874;2023-05-10T03:59:17;13.46;87.07
13796;SHT30;40911;51.552;9.874;2023-05-10T04:01:38;13.54;86.90
13796;SHT30;40911;51.552;9.874;2023-05-10T04:04:01;13.37;88.70
13796;SHT30;40911;51.552;9.874;2023-05-10T04:06:23;13.36;88.91
13796;SHT30;40911;51.552;9.874;2023-05-10T04:08:44;13.43;88.47
13796;SHT30;40911;51.552;9.874;2023-05-10T04:11:06;13.73;87.83
13796;SHT30;40911;51.552;9.874;2023-05-10T04:13:28;13.34;89.36
13796;SHT30;40911;51.552;9.874;2023-05-10T04:15:50;13.67;88.50
13796;SHT30;40911;51.552;9.874;2023-05-10T04:18:11;13.71;88.46
13796;SHT30;40911;51.552;9.874;2023-05-10T04:20:34;13.34;90.24
13796;SHT30;40911;51.552;9.874;2023-05-10T04:22:56;13.06;91.82
13796;SHT30;40911;51.552;9.874;2023-05-10T04:25:18;13.02;92.23
13796;SHT30;40911;51.552;9.874;2023-05-10T04:27:39;13.33;91.39
13796;SHT30;40911;51.552;9.874;2023-05-10T04:30:02;12.88;92.66
13796;SHT30;40911;51.552;9.874;2023-05-10T04:32:24;12.81;93.16
13796;SHT30;40911;51.552;9.874;2023-05-10T04:34:46;12.96;93.21
13796;SHT30;40911;51.552;9.874;2023-05-10T04:37:08;13.01;92.87
13796;SHT30;40911;51.552;9.874;2023-05-10T04:39:30;12.84;94.05
13796;SHT30;40911;51.552;9.874;2023-05-10T04:41:52;13.03;93.42
13796;SHT30;40911;51.552;9.874;2023-05-10T04:44:14;12.86;94.43
13796;SHT30;40911;51.552;9.874;2023-05-10T04:46:35;13.39;92.18
13796;SHT30;40911;51.552;9.874;2023-05-10T04:48:57;13.40;92.01
13796;SHT30;40911;51.552;9.874;2023-05-10T04:51:18;13.20;93.32
13796;SHT30;40911;51.552;9.874;2023-05-10T04:53:42;13.40;92.53
13796;SHT30;40911;51.552;9.874;2023-05-10T04:56:04;13.43;92.29
13796;SHT30;40911;51.552;9.874;2023-05-10T04:58:25;13.27;93.74
13796;SHT30;40911;51.552;9.874;2023-05-10T05:00:47;13.37;93.35
13796;SHT30;40911;51.552;9.874;2023-05-10T05:03:09;13.61;92.59
13796;SHT30;40911;51.552;9.874;2023-05-10T05:05:31;13.65;91.93
13796;SHT30;40911;51.552;9.874;2023-05-10T05:07:52;13.33;94.77
13796;SHT30;40911;51.552;9.874;2023-05-10T05:10:15;12.98;95.36
13796;SHT30;40911;51.552;9.874;2023-05-10T05:12:37;13.36;94.10
13796;SHT30;40911;51.552;9.874;2023-05-10T05:14:58;13.65;92.87
13796;SHT30;40911;51.552;9.874;2023-05-10T05:17:20;13.65;93.72
13796;SHT30;40911;51.552;9.874;2023-05-10T05:19:41;13.37;95.02
13796;SHT30;40911;51.552;9.874;2023-05-10T05:22:03;13.40;95.17
13796;SHT30;40911;51.552;9.874;2023-05-10T05:24:24;13.48;95.66
13796;SHT30;40911;51.552;9.874;2023-05-10T05:26:47;13.68;94.87
13796;SHT30;40911;51.552;9.874;2023-05-10T05:29:09;13.54;94.54
13796;SHT30;40911;51.552;9.874;2023-05-10T05:31:31;13.68;94.92
13796;SHT30;40911;51.552;9.874;2023-05-10T05:33:52;13.78;94.36
13796;SHT30;40911;51.552;9.874;2023-05-10T05:36:14;13.73;94.90
13796;SHT30;40911;51.552;9.874;2023-05-10T05:38:35;13.37;95.53
13796;SHT30;40911;51.552;9.874;2023-05-10T05:40:57;13.75;94.67
13796;SHT30;40911;51.552;9.874;2023-05-10T05:43:20;13.81;94.25
13796;SHT30;40911;51.552;9.874;2023-05-10T05:45:42;13.81;94.20
13796;SHT30;40911;51.552;9.874;2023-05-10T05:48:04;13.68;95.42
13796;SHT30;40911;51.552;9.874;2023-05-10T05:50:26;13.75;95.35
13796;SHT30;40911;51.552;9.874;2023-05-10T05:52:47;14.01;93.82
13796;SHT30;40911;51.552;9.874;2023-05-10T05:55:09;13.88;94.45
13796;SHT30;40911;51.552;9.874;2023-05-10T05:57:31;13.99;93.99
13796;SHT30;40911;51.552;9.874;2023-05-10T05:59:54;13.80;94.68
13796;SHT30;40911;51.552;9.874;2023-05-10T06:02:16;13.51;95.35
13796;SHT30;40911;51.552;9.874;2023-05-10T06:04:37;13.65;95.08
13796;SHT30;40911;51.552;9.874;2023-05-10T06:06:59;13.57;95.53
13796;SHT30;40911;51.552;9.874;2023-05-10T06:09:21;13.64;95.64
13796;SHT30;40911;51.552;9.874;2023-05-10T06:11:43;13.60;95.68
13796;SHT30;40911;51.552;9.874;2023-05-10T06:14:05;13.75;95.06
13796;SHT30;40911;51.552;9.874;2023-05-10T06:16:29;13.78;95.39
13796;SHT30;40911;51.552;9.874;2023-05-10T06:18:51;13.91;94.82
13796;SHT30;40911;51.552;9.874;2023-05-10T06:21:12;13.71;96.12
13796;SHT30;40911;51.552;9.874;2023-05-10T06:23:35;13.88;95.40
13796;SHT30;40911;51.552;9.874;2023-05-10T06:25:57;13.87;95.79
13796;SHT30;40911;51.552;9.874;2023-05-10T06:28:18;13.98;95.26
13796;SHT30;40911;51.552;9.874;2023-05-10T06:30:40;13.47;96.83
13796;SHT30;40911;51.552;9.874;2023-05-10T06:33:03;13.81;96.21
13796;SHT30;40911;51.552;9.874;2023-05-10T06:35:25;14.20;94.92
13796;SHT30;40911;51.552;9.874;2023-05-10T06:37:46;14.25;95.35
13796;SHT30;40911;51.552;9.874;2023-05-10T06:40:08;14.39;94.75
13796;SHT30;40911;51.552;9.874;2023-05-10T06:42:30;14.29;94.74
13796;SHT30;40911;51.552;9.874;2023-05-10T06:44:52;14.02;93.53
13796;SHT30;40911;51.552;9.874;2023-05-10T06:47:13;14.59;93.90
13796;SHT30;40911;51.552;9.874;2023-05-10T06:49:36;14.46;94.26
13796;SHT30;40911;51.552;9.874;2023-05-10T06:51:58;14.39;93.53
13796;SHT30;40911;51.552;9.874;2023-05-10T06:54:20;14.64;92.77
13796;SHT30;40911;51.552;9.874;2023-05-10T06:56:41;14.25;94.08
13796;SHT30;40911;51.552;9.874;2023-05-10T06:59:03;14.39;93.36
13796;SHT30;40911;51.552;9.874;2023-05-10T07:01:24;14.43;93.55
13796;SHT30;40911;51.552;9.874;2023-05-10T07:03:46;14.52;93.16
13796;SHT30;40911;51.552;9.874;2023-05-10T07:06:09;14.61;93.19
13796;SHT30;40911;51.552;9.874;2023-05-10T07:08:30;14.57;92.14
13796;SHT30;40911;51.552;9.874;2023-05-10T07:10:52;14.49;92.95
13796;SHT30;40911;51.552;9.874;2023-05-10T07:13:13;14.22;93.51
13796;SHT30;40911;51.552;9.874;2023-05-10T07:15:35;14.34;93.20
13796;SHT30;40911;51.552;9.874;2023-05-10T07:17:56;14.43;92.74
13796;SHT30;40911;51.552;9.874;2023-05-10T07:20:18;14.32;91.97
13796;SHT30;40911;51.552;9.874;2023-05-10T07:22:41;14.33;92.26
13796;SHT30;40911;51.552;9.874;2023-05-10T07:25:03;14.18;92.59
13796;SHT30;40911;51.552;9.874;2023-05-10T07:27:25;14.26;92.24
13796;SHT30;40911;51.552;9.874;2023-05-10T07:29:46;14.36;91.88
13796;SHT30;40911;51.552;9.874;2023-05-10T07:32:08;14.29;91.95
13796;SHT30;40911;51.552;9.874;2023-05-10T07:34:30;14.29;92.01
13796;SHT30;40911;51.552;9.874;2023-05-10T07:36:52;14.29;92.27
13796;SHT30;40911;51.552;9.874;2023-05-10T07:39:15;14.37;92.79
13796;SHT30;40911;51.552;9.874;2023-05-10T07:41:37;14.29;93.35
13796;SHT30;40911;51.552;9.874;2023-05-10T07:43:58;14.52;92.23
13796;SHT30;40911;51.552;9.874;2023-05-10T07:46:20;14.29;92.59
13796;SHT30;40911;51.552;9.874;2023-05-10T07:48:42;14.26;92.06
13796;SHT30;40911;51.552;9.874;2023-05-10T07:51:03;14.52;91.50
13796;SHT30;40911;51.552;9.874;2023-05-10T07:53:26;14.36;92.38
13796;SHT30;40911;51.552;9.874;2023-05-10T07:55:51;14.34;91.23
13796;SHT30;40911;51.552;9.874;2023-05-10T07:58:15;14.41;91.68
13796;SHT30;40911;51.552;9.874;2023-05-10T08:00:37;14.33;91.41
13796;SHT30;40911;51.552;9.874;2023-05-10T08:02:59;14.63;90.92
13796;SHT30;40911;51.552;9.874;2023-05-10T08:05:21;14.39;91.28
13796;SHT30;40911;51.552;9.874;2023-05-10T08:07:42;14.67;90.81
13796;SHT30;40911;51.552;9.874;2023-05-10T08:10:05;14.74;90.64
13796;SHT30;40911;51.552;9.874;2023-05-10T08:12:28;14.68;90.35
13796;SHT30;40911;51.552;9.874;2023-05-10T08:14:50;14.89;90.12
13796;SHT30;40911;51.552;9.874;2023-05-10T08:17:12;14.84;91.12
13796;SHT30;40911;51.552;9.874;2023-05-10T08:19:33;15.19;89.47
13796;SHT30;40911;51.552;9.874;2023-05-10T08:21:55;15.20;88.79
13796;SHT30;40911;51.552;9.874;2023-05-10T08:24:17;15.54;89.51
13796;SHT30;40911;51.552;9.874;2023-05-10T08:26:39;15.70;87.49
13796;SHT30;40911;51.552;9.874;2023-05-10T08:29:02;15.81;86.65
13796;SHT30;40911;51.552;9.874;2023-05-10T08:31:24;15.70;87.22
13796;SHT30;40911;51.552;9.874;2023-05-10T08:33:45;15.69;86.59
13796;SHT30;40911;51.552;9.874;2023-05-10T08:36:07;15.82;86.71
13796;SHT30;40911;51.552;9.874;2023-05-10T08:38:29;15.59;86.20
13796;SHT30;40911;51.552;9.874;2023-05-10T08:40:50;15.73;86.40
13796;SHT30;40911;51.552;9.874;2023-05-10T08:43:16;15.74;86.95
13796;SHT30;40911;51.552;9.874;2023-05-10T08:45:41;15.85;85.49
13796;SHT30;40911;51.552;9.874;2023-05-10T08:48:05;15.80;85.48
13796;SHT30;40911;51.552;9.874;2023-05-10T08:50:27;15.85;84.77
13796;SHT30;40911;51.552;9.874;2023-05-10T08:52:50;16.30;84.15
13796;SHT30;40911;51.552;9.874;2023-05-10T08:55:15;16.78;85.01
13796;SHT30;40911;51.552;9.874;2023-05-10T08:57:37;16.43;83.07
13796;SHT30;40911;51.552;9.874;2023-05-10T08:59:58;16.83;83.04
13796;SHT30;40911;51.552;9.874;2023-05-10T09:02:23;16.80;83.24
13796;SHT30;40911;51.552;9.874;2023-05-10T09:04:45;17.08;83.85
13796;SHT30;40911;51.552;9.874;2023-05-10T09:07:07;17.11;80.96
13796;SHT30;40911;51.552;9.874;2023-05-10T09:09:28;17.45;82.19
13796;SHT30;40911;51.552;9.874;2023-05-10T09:11:51;17.12;81.12
13796;SHT30;40911;51.552;9.874;2023-05-10T09:14:13;17.43;81.57
13796;SHT30;40911;51.552;9.874;2023-05-10T09:16:36;17.01;79.37
13796;SHT30;40911;51.552;9.874;2023-05-10T09:18:59;17.35;80.29
13796;SHT30;40911;51.552;9.874;2023-05-10T09:21:20;17.35;79.79
13796;SHT30;40911;51.552;9.874;2023-05-10T09:23:43;17.08;80.47
13796;SHT30;40911;51.552;9.874;2023-05-10T09:26:05;16.25;84.13
13796;SHT30;40911;51.552;9.874;2023-05-10T09:28:27;16.04;86.40
13796;SHT30;40911;51.552;9.874;2023-05-10T09:30:53;15.82;88.12
13796;SHT30;40911;51.552;9.874;2023-05-10T09:33:18;16.04;85.98
13796;SHT30;40911;51.552;9.874;2023-05-10T09:35:42;15.92;87.28
13796;SHT30;40911;51.552;9.874;2023-05-10T09:38:04;16.07;86.52
13796;SHT30;40911;51.552;9.874;2023-05-10T09:40:28;16.07;85.74
13796;SHT30;40911;51.552;9.874;2023-05-10T09:42:55;16.01;85.89
13796;SHT30;40911;51.552;9.874;2023-05-10T09:45:17;16.21;84.61
13796;SHT30;40911;51.552;9.874;2023-05-10T09:47:39;16.35;83.83
13796;SHT30;40911;51.552;9.874;2023-05-10T09:50:01;16.33;85.05
13796;SHT30;40911;51.552;9.874;2023-05-10T09:52:26;16.19;85.18
13796;SHT30;40911;51.552;9.874;2023-05-10T09:54:52;15.95;83.64
13796;SHT30;40911;51.552;9.874;2023-05-10T09:57:19;16.33;83.09
13796;SHT30;40911;51.552;9.874;2023-05-10T09:59:43;17.08;82.23
13796;SHT30;40911;51.552;9.874;2023-05-10T10:02:04;17.08;82.49
13796;SHT30;40911;51.552;9.874;2023-05-10T10:04:27;17.24;81.83
13796;SHT30;40911;51.552;9.874;2023-05-10T10:06:58;17.16;80.48
13796;SHT30;40911;51.552;9.874;2023-05-10T10:09:22;16.85;81.44
13796;SHT30;40911;51.552;9.874;2023-05-10T10:11:43;17.35;81.14
13796;SHT30;40911;51.552;9.874;2023-05-10T10:14:05;17.15;79.33
13796;SHT30;40911;51.552;9.874;2023-05-10T10:16:29;17.60;80.30
13796;SHT30;40911;51.552;9.874;2023-05-10T10:18:50;17.76;77.70
13796;SHT30;40911;51.552;9.874;2023-05-10T10:21:12;17.38;79.42
13796;SHT30;40911;51.552;9.874;2023-05-10T10:23:35;17.32;78.36
13796;SHT30;40911;51.552;9.874;2023-05-10T10:25:58;17.96;76.63
13796;SHT30;40911;51.552;9.874;2023-05-10T10:28:26;17.69;77.59
13796;SHT30;40911;51.552;9.874;2023-05-10T10:30:53;17.18;77.61
13796;SHT30;40911;51.552;9.874;2023-05-10T10:33:40;16.97;77.98
13796;SHT30;40911;51.552;9.874;2023-05-10T10:36:09;17.22;78.40
13796;SHT30;40911;51.552;9.874;2023-05-10T10:38:38;17.29;77.56
13796;SHT30;40911;51.552;9.874;2023-05-10T10:41:32;17.12;77.43
13796;SHT30;40911;51.552;9.874;2023-05-10T10:44:25;17.35;77.23
13796;SHT30;40911;51.552;9.874;2023-05-10T10:47:05;17.36;77.76
13796;SHT30;40911;51.552;9.874;2023-05-10T10:49:30;17.11;77.47
13796;SHT30;40911;51.552;9.874;2023-05-10T10:52:24;17.07;78.27
13796;SHT30;40911;51.552;9.874;2023-05-10T10:54:51;16.85;79.22
13796;SHT30;40911;51.552;9.874;2023-05-10T10:57:15;16.81;78.96
13796;SHT30;40911;51.552;9.874;2023-05-10T10:59:41;16.78;79.98
13796;SHT30;40911;51.552;9.874;2023-05-10T11:02:03;16.84;81.68
13796;SHT30;40911;51.552;9.874;2023-05-10T11:04:25;16.30;84.77
13796;SHT30;40911;51.552;9.874;2023-05-10T11:06:47;15.92;86.47
13796;SHT30;40911;51.552;9.874;2023-05-10T11:09:08;15.81;87.56
13796;SHT30;40911;51.552;9.874;2023-05-10T11:11:31;16.30;87.54
13796;SHT30;40911;51.552;9.874;2023-05-10T11:13:54;16.19;86.24
13796;SHT30;40911;51.552;9.874;2023-05-10T11:16:24;16.59;84.14
13796;SHT30;40911;51.552;9.874;2023-05-10T11:18:55;16.35;82.65
13796;SHT30;40911;51.552;9.874;2023-05-10T11:21:18;17.19;84.42
13796;SHT30;40911;51.552;9.874;2023-05-10T11:23:49;17.66;81.27
13796;SHT30;40911;51.552;9.874;2023-05-10T11:26:11;17.80;78.80
13796;SHT30;40911;51.552;9.874;2023-05-10T11:28:33;17.84;78.78
13796;SHT30;40911;51.552;9.874;2023-05-10T11:30:56;17.56;78.81
13796;SHT30;40911;51.552;9.874;2023-05-10T11:33:19;17.73;78.12
13796;SHT30;40911;51.552;9.874;2023-05-10T11:35:41;18.21;79.10
13796;SHT30;40911;51.552;9.874;2023-05-10T11:38:02;18.00;77.62
13796;SHT30;40911;51.552;9.874;2023-05-10T11:40:26;18.88;76.82
13796;SHT30;40911;51.552;9.874;2023-05-10T11:42:47;19.49;74.31
13796;SHT30;40911;51.552;9.874;2023-05-10T11:45:10;19.01;73.80
13796;SHT30;40911;51.552;9.874;2023-05-10T11:47:33;18.38;74.94
13796;SHT30;40911;51.552;9.874;2023-05-10T11:49:57;18.46;75.39
13796;SHT30;40911;51.552;9.874;2023-05-10T11:52:18;18.39;73.66
13796;SHT30;40911;51.552;9.874;2023-05-10T11:54:45;18.35;74.90
13796;SHT30;40911;51.552;9.874;2023-05-10T11:57:07;19.25;75.61
13796;SHT30;40911;51.552;9.874;2023-05-10T11:59:29;19.49;74.10
13796;SHT30;40911;51.552;9.874;2023-05-10T12:01:50;19.10;72.66
13796;SHT30;40911;51.552;9.874;2023-05-10T12:04:13;18.62;73.54
13796;SHT30;40911;51.552;9.874;2023-05-10T12:06:39;19.27;73.13
13796;SHT30;40911;51.552;9.874;2023-05-10T12:09:05;19.55;71.91
13796;SHT30;40911;51.552;9.874;2023-05-10T12:11:28;19.61;73.08
13796;SHT30;40911;51.552;9.874;2023-05-10T12:13:50;19.12;72.18
13796;SHT30;40911;51.552;9.874;2023-05-10T12:16:15;19.52;72.89
13796;SHT30;40911;51.552;9.874;2023-05-10T12:18:38;19.39;73.77
13796;SHT30;40911;51.552;9.874;2023-05-10T12:21:04;19.63;72.83
13796;SHT30;40911;51.552;9.874;2023-05-10T12:23:26;19.25;72.46
13796;SHT30;40911;51.552;9.874;2023-05-10T12:25:47;19.03;73.15
13796;SHT30;40911;51.552;9.874;2023-05-10T12:28:09;19.30;72.59
13796;SHT30;40911;51.552;9.874;2023-05-10T12:30:32;19.25;73.26
13796;SHT30;40911;51.552;9.874;2023-05-10T12:33:00;18.96;72.08
13796;SHT30;40911;51.552;9.874;2023-05-10T12:35:22;19.53;72.01
13796;SHT30;40911;51.552;9.874;2023-05-10T12:37:45;19.69;71.47
13796;SHT30;40911;51.552;9.874;2023-05-10T12:40:09;19.32;70.55
13796;SHT30;40911;51.552;9.874;2023-05-10T12:42:31;19.43;70.93
13796;SHT30;40911;51.552;9.874;2023-05-10T12:44:55;19.30;70.70
13796;SHT30;40911;51.552;9.874;2023-05-10T12:47:16;19.23;72.80
13796;SHT30;40911;51.552;9.874;2023-05-10T12:49:38;19.59;73.84
13796;SHT30;40911;51.552;9.874;2023-05-10T12:51:59;18.93;72.65
13796;SHT30;40911;51.552;9.874;2023-05-10T12:54:22;18.69;71.94
13796;SHT30;40911;51.552;9.874;2023-05-10T12:56:44;19.12;72.97
13796;SHT30;40911;51.552;9.874;2023-05-10T12:59:05;19.56;72.53
13796;SHT30;40911;51.552;9.874;2023-05-10T13:01:27;19.79;72.64
13796;SHT30;40911;51.552;9.874;2023-05-10T13:03:49;20.10;71.98
13796;SHT30;40911;51.552;9.874;2023-05-10T13:06:11;20.28;72.40
13796;SHT30;40911;51.552;9.874;2023-05-10T13:08:33;19.79;71.26
13796;SHT30;40911;51.552;9.874;2023-05-10T13:10:56;19.90;71.74
13796;SHT30;40911;51.552;9.874;2023-05-10T13:13:18;19.96;70.75
13796;SHT30;40911;51.552;9.874;2023-05-10T13:15:39;20.27;71.67
13796;SHT30;40911;51.552;9.874;2023-05-10T13:18:01;20.93;69.99
13796;SHT30;40911;51.552;9.874;2023-05-10T13:20:22;20.60;69.08
13796;SHT30;40911;51.552;9.874;2023-05-10T13:22:44;21.18;70.89
13796;SHT30;40911;51.552;9.874;2023-05-10T13:25:06;21.38;68.16
13796;SHT30;40911;51.552;9.874;2023-05-10T13:27:29;21.69;67.58
13796;SHT30;40911;51.552;9.874;2023-05-10T13:29:51;22.16;67.33
13796;SHT30;40911;51.552;9.874;2023-05-10T13:32:12;22.06;66.20
13796;SHT30;40911;51.552;9.874;2023-05-10T13:34:34;22.23;64.89
13796;SHT30;40911;51.552;9.874;2023-05-10T13:36:56;22.57;65.62
13796;SHT30;40911;51.552;9.874;2023-05-10T13:39:18;22.20;63.55
13796;SHT30;40911;51.552;9.874;2023-05-10T13:41:40;20.59;65.99
13796;SHT30;40911;51.552;9.874;2023-05-10T13:44:03;21.72;65.03
13796;SHT30;40911;51.552;9.874;2023-05-10T13:46:24;21.65;65.65
13796;SHT30;40911;51.552;9.874;2023-05-10T13:48:46;20.92;65.70
13796;SHT30;40911;51.552;9.874;2023-05-10T13:51:08;20.96;65.34
13796;SHT30;40911;51.552;9.874;2023-05-10T13:53:29;20.53;66.14
13796;SHT30;40911;51.552;9.874;2023-05-10T13:55:51;19.80;67.90
13796;SHT30;40911;51.552;9.874;2023-05-10T13:58:13;21.10;66.35
13796;SHT30;40911;51.552;9.874;2023-05-10T14:00:36;21.15;67.07
13796;SHT30;40911;51.552;9.874;2023-05-10T14:02:57;21.57;66.38
13796;SHT30;40911;51.552;9.874;2023-05-10T14:05:19;21.47;64.48
13796;SHT30;40911;51.552;9.874;2023-05-10T14:07:41;21.35;64.64
13796;SHT30;40911;51.552;9.874;2023-05-10T14:10:03;21.13;66.80
13796;SHT30;40911;51.552;9.874;2023-05-10T14:12:25;20.92;66.77
13796;SHT30;40911;51.552;9.874;2023-05-10T14:14:47;20.41;66.41
13796;SHT30;40911;51.552;9.874;2023-05-10T14:17:10;20.38;65.22
13796;SHT30;40911;51.552;9.874;2023-05-10T14:19:31;20.39;65.16
13796;SHT30;40911;51.552;9.874;2023-05-10T14:21:54;20.24;66.07
13796;SHT30;40911;51.552;9.874;2023-05-10T14:24:16;19.80;68.85
13796;SHT30;40911;51.552;9.874;2023-05-10T14:26:37;20.35;68.92
13796;SHT30;40911;51.552;9.874;2023-05-10T14:28:59;19.63;70.30
13796;SHT30;40911;51.552;9.874;2023-05-10T14:31:21;19.24;74.14
13796;SHT30;40911;51.552;9.874;2023-05-10T14:33:46;19.01;75.61
13796;SHT30;40911;51.552;9.874;2023-05-10T14:36:08;18.18;77.24
13796;SHT30;40911;51.552;9.874;2023-05-10T14:38:29;17.96;78.58
13796;SHT30;40911;51.552;9.874;2023-05-10T14:40:51;17.33;79.85
13796;SHT30;40911;51.552;9.874;2023-05-10T14:43:12;17.56;79.70
13796;SHT30;40911;51.552;9.874;2023-05-10T14:45:34;17.63;80.09
13796;SHT30;40911;51.552;9.874;2023-05-10T14:47:55;17.50;79.39
13796;SHT30;40911;51.552;9.874;2023-05-10T14:50:18;17.45;78.44
13796;SHT30;40911;51.552;9.874;2023-05-10T14:52:40;17.18;78.65
13796;SHT30;40911;51.552;9.874;2023-05-10T14:55:02;17.32;78.66
13796;SHT30;40911;51.552;9.874;2023-05-10T14:57:23;17.11;81.00
13796;SHT30;40911;51.552;9.874;2023-05-10T14:59:45;17.16;82.31
13796;SHT30;40911;51.552;9.874;2023-05-10T15:02:06;17.04;84.46
13796;SHT30;40911;51.552;9.874;2023-05-10T15:04:28;16.81;83.96
13796;SHT30;40911;51.552;9.874;2023-05-10T15:06:51;16.63;85.08
13796;SHT30;40911;51.552;9.874;2023-05-10T15:09:13;16.59;84.22